KRIV/RIV METAR and TAF weather

Enter ICAO airport designator
Station Type Date Time Source
KRIV METAR 2019/06/26 15:58 UTC NOAA

KRIV 261558Z 36004KT 5SM BR OVC012 18/17 A2998 RMK AO2A OVC V BKN SLP145 T01810168


Station Type Date Time Source
KRIV Decoded METAR 2019/06/26 15:58 UTC NOAA

Riverside / March Air Force Base, CA, United States (KRIV) 33-54N 117-15W 468M
Jun 26, 2019 - 11:58 AM EDT / 2019.06.26 1558 UTC
Wind: from the N (360 degrees) at 5 MPH (4 KT):0
Visibility: 5 mile(s):0
Sky conditions: overcast
Weather: mist
Temperature: 64.6 F (18.1 C)
Dew Point: 62.2 F (16.8 C)
Relative Humidity: 92%
Pressure (altimeter): 29.98 in. Hg (1015 hPa)
ob: KRIV 261558Z 36004KT 5SM BR OVC012 18/17 A2998 RMK AO2A OVC V BKN SLP145 T01810168
cycle: 16

Station Type Date Time Source
KRIV TAF 2019/06/26 12:09 UTC NOAA

TAF KRIV 261200Z 2612/2718 VRB04KT 8000 BR OVC008 QNH2990INS
BECMG 2614/2615 VRB04KT 9999 NSW BKN010 QNH2993INS
BECMG 2617/2618 30006KT 9999 FEW020 QNH2996INS
BECMG 2619/2620 30009KT 9999 SKC QNH2988INS
TEMPO 2621/2702 31012G18KT
BECMG 2703/2704 31006KT 9999 SKC QNH2992INS
BECMG 2710/2711 VRB04KT 3200 BR OVC005 QNH2994INS
BECMG 2715/2716 VRB04KT 9999 NSW SKC QNH2996INS TX27/2622Z TN15/2613Z

Example: see airport list